createdAt,value
2023-03-19T00:01:53.039Z,101042.66
2023-03-19T00:04:22.923Z,101040.81
2023-03-19T00:06:52.857Z,101046.16
2023-03-19T00:09:22.797Z,101050.53
2023-03-19T00:11:52.713Z,101043.50
2023-03-19T00:14:22.320Z,101053.06
2023-03-19T00:16:52.289Z,101056.72
2023-03-19T00:19:22.217Z,101059.41
2023-03-19T00:21:51.893Z,101057.56
2023-03-19T00:24:22.182Z,101055.59
2023-03-19T00:26:51.797Z,101052.09
2023-03-19T00:29:21.389Z,101054.63
2023-03-19T00:31:51.316Z,101051.09
2023-03-19T00:34:20.973Z,101054.63
2023-03-19T00:36:50.601Z,101053.06
2023-03-19T00:39:20.258Z,101062.66
2023-03-19T00:41:51.990Z,101062.50
2023-03-19T00:44:21.545Z,101060.66
2023-03-19T00:46:51.118Z,101059.69
2023-03-19T00:49:20.754Z,101057.31
2023-03-19T00:51:50.416Z,101058.00
2023-03-19T00:54:20.083Z,101066.72
2023-03-19T00:56:49.687Z,101062.34
2023-03-19T00:59:19.240Z,101058.84
2023-03-19T01:01:48.865Z,101064.91
2023-03-19T01:04:19.174Z,101067.56
2023-03-19T01:06:49.065Z,101070.25
2023-03-19T01:09:18.727Z,101073.59
2023-03-19T01:11:48.281Z,101063.81
2023-03-19T01:14:19.552Z,101069.25
2023-03-19T01:16:49.220Z,101061.13
2023-03-19T01:19:18.837Z,101058.59
2023-03-19T01:21:48.517Z,101049.47
2023-03-19T01:24:18.790Z,101044.13
2023-03-19T01:26:48.391Z,101043.88
2023-03-19T01:29:18.055Z,101043.16
2023-03-19T01:31:47.599Z,101035.00
2023-03-19T01:34:18.001Z,101035.88
2023-03-19T01:36:48.601Z,101038.38
2023-03-19T01:39:18.274Z,101031.38
2023-03-19T01:41:48.364Z,101032.22
2023-03-19T01:44:35.160Z,101036.56
2023-03-19T01:47:09.456Z,101035.72
2023-03-19T01:49:38.417Z,101037.41
2023-03-19T01:52:08.987Z,101042.88
2023-03-19T01:54:38.622Z,101033.88
2023-03-19T01:57:09.686Z,101034.03
2023-03-19T01:59:41.013Z,101031.09
2023-03-19T02:02:16.094Z,101028.44
2023-03-19T02:04:46.244Z,101031.94
2023-03-19T02:07:16.227Z,101034.34
2023-03-19T02:09:46.150Z,101033.34
2023-03-19T02:12:15.825Z,101022.69
2023-03-19T02:14:45.400Z,101031.69
2023-03-19T02:17:15.428Z,101029.84
2023-03-19T02:20:02.513Z,101029.84
2023-03-19T02:22:32.313Z,101019.03
2023-03-19T02:25:18.744Z,101020.69
2023-03-19T02:27:48.356Z,101010.75
2023-03-19T02:30:33.060Z,101023.25
2023-03-19T02:33:02.980Z,101008.91
2023-03-19T02:35:34.200Z,101011.59
2023-03-19T02:38:04.713Z,101013.16
2023-03-19T02:40:40.250Z,100998.81
2023-03-19T02:43:09.827Z,101008.50
2023-03-19T02:45:39.459Z,101001.34
2023-03-19T02:48:09.055Z,101001.34
2023-03-19T02:50:38.663Z,100996.00
2023-03-19T02:53:08.455Z,100986.03
2023-03-19T02:55:38.378Z,100980.69
2023-03-19T02:58:08.218Z,100978.03
2023-03-19T03:00:37.883Z,100984.34
2023-03-19T03:03:09.147Z,100977.19
2023-03-19T03:05:38.834Z,100971.00
2023-03-19T03:08:08.485Z,100971.97
2023-03-19T03:10:38.136Z,100965.50
2023-03-19T03:13:08.616Z,100952.16
2023-03-19T03:15:38.149Z,100954.84
2023-03-19T03:18:07.974Z,100943.31
2023-03-19T03:20:37.957Z,100937.81
2023-03-19T03:23:08.462Z,100924.63
2023-03-19T03:25:38.256Z,100915.88
2023-03-19T03:28:07.887Z,100911.41
2023-03-19T03:30:37.846Z,100911.28
2023-03-19T03:33:07.421Z,100911.41
2023-03-19T03:35:37.066Z,100915.63
2023-03-19T03:38:06.758Z,100904.25
2023-03-19T03:40:36.712Z,100895.53
2023-03-19T03:43:06.572Z,100894.25
2023-03-19T03:45:36.249Z,100895.09
2023-03-19T03:48:06.046Z,100893.41
2023-03-19T03:50:35.888Z,100890.75
2023-03-19T03:53:05.736Z,100884.56
2023-03-19T03:55:35.319Z,100876.56
2023-03-19T03:58:04.955Z,100870.22
2023-03-19T04:00:34.923Z,100862.09
2023-03-19T04:03:04.800Z,100849.84
2023-03-19T04:05:34.472Z,100857.72
2023-03-19T04:08:05.184Z,100854.09
2023-03-19T04:10:37.076Z,100844.38
2023-03-19T04:13:06.663Z,100829.34
2023-03-19T04:15:36.412Z,100832.84
2023-03-19T04:18:06.173Z,100818.66
2023-03-19T04:20:36.308Z,100829.22
2023-03-19T04:23:06.192Z,100821.19
2023-03-19T04:25:35.833Z,100816.69
2023-03-19T04:28:05.458Z,100811.22
2023-03-19T04:30:35.557Z,100801.66
2023-03-19T04:33:06.349Z,100805.19
2023-03-19T04:35:36.344Z,100790.13
2023-03-19T04:38:06.216Z,100795.47
2023-03-19T04:40:36.057Z,100789.00
2023-03-19T04:43:05.839Z,100790.84
2023-03-19T04:45:35.816Z,100781.28
2023-03-19T04:48:05.566Z,100782.00
2023-03-19T04:50:36.351Z,100774.94
2023-03-19T04:53:05.968Z,100775.81
2023-03-19T04:55:35.737Z,100769.59
2023-03-19T04:58:05.740Z,100767.81
2023-03-19T05:00:35.473Z,100762.31
2023-03-19T05:03:05.299Z,100766.94
2023-03-19T05:05:35.016Z,100765.97
2023-03-19T05:08:04.990Z,100760.63
2023-03-19T05:10:34.824Z,100759.47
2023-03-19T05:13:04.596Z,100755.13
2023-03-19T05:15:34.408Z,100746.44
2023-03-19T05:18:04.104Z,100749.09
2023-03-19T05:20:33.789Z,100751.78
2023-03-19T05:23:04.351Z,100746.44
2023-03-19T05:25:34.241Z,100743.91
2023-03-19T05:28:04.392Z,100736.72
2023-03-19T05:30:34.716Z,100741.22
2023-03-19T05:33:05.086Z,100736.59
2023-03-19T05:35:34.873Z,100735.88
2023-03-19T05:38:04.456Z,100726.88
2023-03-19T05:40:35.369Z,100722.41
2023-03-19T05:43:05.229Z,100726.75
2023-03-19T05:45:35.051Z,100721.53
2023-03-19T05:48:05.659Z,100720.69
2023-03-19T05:50:35.651Z,100719.03
2023-03-19T05:53:05.373Z,100722.53
2023-03-19T05:55:35.013Z,100720.56
2023-03-19T05:58:04.614Z,100710.84
2023-03-19T06:00:34.455Z,100716.19
2023-03-19T06:03:04.322Z,100706.50
2023-03-19T06:05:33.978Z,100705.41
2023-03-19T06:08:03.567Z,100710.03
2023-03-19T06:10:33.493Z,100698.50
2023-03-19T06:13:03.310Z,100701.34
2023-03-19T06:15:33.190Z,100698.50
2023-03-19T06:18:03.037Z,100703.84
2023-03-19T06:20:33.632Z,100699.50
2023-03-19T06:23:03.434Z,100695.84
2023-03-19T06:25:33.227Z,100696.81
2023-03-19T06:28:02.925Z,100693.31
2023-03-19T06:30:33.053Z,100695.84
2023-03-19T06:33:03.287Z,100691.50
2023-03-19T06:35:32.951Z,100701.34
2023-03-19T06:38:02.585Z,100698.66
2023-03-19T06:40:32.259Z,100693.16
2023-03-19T06:43:02.416Z,100693.31
2023-03-19T06:45:32.503Z,100701.34
2023-03-19T06:48:02.304Z,100697.81
2023-03-19T06:50:32.153Z,100711.16
2023-03-19T06:53:02.102Z,100704.00
2023-03-19T06:55:32.568Z,100703.16
2023-03-19T06:58:02.472Z,100701.34
2023-03-19T07:00:32.497Z,100699.63
2023-03-19T07:03:02.351Z,100700.63
2023-03-19T07:05:32.078Z,100704.28
2023-03-19T07:08:01.881Z,100701.47
2023-03-19T07:10:31.495Z,100703.16
2023-03-19T07:13:01.102Z,100697.94
2023-03-19T07:15:30.774Z,100682.09
2023-03-19T07:18:00.531Z,100686.44
2023-03-19T07:20:30.259Z,100679.53
2023-03-19T07:22:59.907Z,100675.03
2023-03-19T07:25:29.570Z,100670.69
2023-03-19T07:27:59.358Z,100654.69
2023-03-19T07:30:28.959Z,100660.84
2023-03-19T07:32:58.669Z,100663.53
2023-03-19T07:35:28.468Z,100659.03
2023-03-19T07:37:58.119Z,100645.00
2023-03-19T07:40:28.341Z,100646.94
2023-03-19T07:42:58.030Z,100648.66
2023-03-19T07:45:27.715Z,100645.16
2023-03-19T07:47:57.497Z,100639.25
2023-03-19T07:50:27.421Z,100635.59
2023-03-19T07:52:57.248Z,100637.25
2023-03-19T07:55:27.237Z,100631.94
2023-03-19T07:57:57.074Z,100631.25
2023-03-19T08:00:26.820Z,100635.72
2023-03-19T08:02:56.385Z,100641.63
2023-03-19T08:05:26.351Z,100637.44
2023-03-19T08:07:55.974Z,100632.09
2023-03-19T08:10:25.725Z,100635.72
2023-03-19T08:12:55.413Z,100637.25
2023-03-19T08:15:25.128Z,100642.75
2023-03-19T08:18:05.717Z,100643.59
2023-03-19T08:20:35.782Z,100631.25
2023-03-19T08:23:06.041Z,100639.94
2023-03-19T08:25:35.606Z,100649.06
2023-03-19T08:28:05.251Z,100648.94
2023-03-19T08:30:35.352Z,100648.09
2023-03-19T08:33:05.230Z,100652.59
2023-03-19T08:35:34.880Z,100664.81
2023-03-19T08:38:04.531Z,100659.63
2023-03-19T08:40:34.353Z,100662.13
2023-03-19T08:43:05.463Z,100651.72
2023-03-19T08:45:35.118Z,100655.28
2023-03-19T08:48:05.740Z,100661.56
2023-03-19T08:50:35.699Z,100658.06
2023-03-19T08:53:05.557Z,100661.56
2023-03-19T08:55:35.376Z,100664.97
2023-03-19T08:58:05.022Z,100660.75
2023-03-19T09:00:34.838Z,100660.75
2023-03-19T09:03:04.653Z,100659.91
2023-03-19T09:05:34.255Z,100659.91
2023-03-19T09:08:03.889Z,100656.38
2023-03-19T09:10:33.830Z,100665.25
2023-03-19T09:13:03.831Z,100666.22
2023-03-19T09:15:33.707Z,100661.72
2023-03-19T09:18:03.441Z,100660.06
2023-03-19T09:20:33.075Z,100667.19
2023-03-19T09:23:02.686Z,100666.34
2023-03-19T09:25:32.644Z,100664.69
2023-03-19T09:28:02.499Z,100657.50
2023-03-19T09:30:32.382Z,100663.69
2023-03-19T09:33:02.097Z,100659.34
2023-03-19T09:35:33.226Z,100660.19
2023-03-19T09:38:06.013Z,100660.34
2023-03-19T09:40:43.939Z,100655.00
2023-03-19T09:43:37.623Z,100666.50
2023-03-19T09:46:12.519Z,100658.78
2023-03-19T09:48:53.844Z,100662.44
2023-03-19T09:51:48.624Z,100668.63
2023-03-19T09:54:50.806Z,100675.63
2023-03-19T09:57:20.784Z,100674.81
2023-03-19T09:59:50.696Z,100680.28
2023-03-19T10:02:41.274Z,100677.63
2023-03-19T10:05:28.959Z,100672.41
2023-03-19T10:08:26.217Z,100677.63
2023-03-19T10:11:23.244Z,100670.72
2023-03-19T10:14:43.494Z,100673.41
2023-03-19T10:17:17.981Z,100674.69
2023-03-19T10:20:09.852Z,100677.34
2023-03-19T10:22:46.722Z,100685.34
2023-03-19T10:25:21.131Z,100679.84
2023-03-19T10:27:55.865Z,100685.06
2023-03-19T10:30:25.544Z,100687.88
2023-03-19T10:33:24.997Z,100682.69
2023-03-19T10:36:01.011Z,100687.88
2023-03-19T10:38:31.011Z,100685.34
2023-03-19T10:41:06.806Z,100678.19
2023-03-19T10:43:36.434Z,100689.97
2023-03-19T10:46:06.165Z,100689.84
2023-03-19T10:48:36.614Z,100694.47
2023-03-19T10:51:09.092Z,100689.97
2023-03-19T10:53:40.116Z,100683.81
2023-03-19T10:56:25.713Z,100680.28
2023-03-19T10:59:08.690Z,100686.47
2023-03-19T11:01:42.849Z,100689.97
2023-03-19T11:04:21.854Z,100691.13
2023-03-19T11:07:12.865Z,100687.63
2023-03-19T11:09:50.098Z,100686.06
2023-03-19T11:12:26.157Z,100681.28
2023-03-19T11:14:56.935Z,100688.56
2023-03-19T11:17:42.182Z,100693.06
2023-03-19T11:20:38.708Z,100692.09
2023-03-19T11:23:29.213Z,100694.75
2023-03-19T11:26:03.218Z,100699.25
2023-03-19T11:28:35.802Z,100688.56
2023-03-19T11:31:05.497Z,100685.06
2023-03-19T11:33:50.155Z,100687.91
2023-03-19T11:37:09.402Z,100690.56
2023-03-19T11:40:04.516Z,100685.47
2023-03-19T11:43:05.062Z,100688.97
2023-03-19T11:45:53.700Z,100693.47
2023-03-19T11:48:38.177Z,100694.47
2023-03-19T11:51:39.277Z,100688.41
2023-03-19T11:54:11.205Z,100692.91
2023-03-19T11:57:15.798Z,100681.25
2023-03-19T12:00:20.075Z,100688.41
2023-03-19T12:03:30.380Z,100692.91
2023-03-19T12:05:59.947Z,100691.22
2023-03-19T12:08:44.934Z,100695.72
2023-03-19T12:11:27.570Z,100698.41
2023-03-19T12:14:21.582Z,100692.06
2023-03-19T12:16:57.513Z,100703.88
2023-03-19T12:19:42.866Z,100701.06
2023-03-19T12:22:28.000Z,100709.06
2023-03-19T12:25:37.594Z,100712.59
2023-03-19T12:28:16.488Z,100707.38
2023-03-19T12:31:11.941Z,100707.25
2023-03-19T12:34:00.670Z,100709.19
2023-03-19T12:36:33.656Z,100697.69
2023-03-19T12:39:13.456Z,100705.53
2023-03-19T12:41:44.989Z,100710.03
2023-03-19T12:44:29.821Z,100704.84
2023-03-19T12:47:25.534Z,100712.69
2023-03-19T12:50:02.350Z,100711.88
2023-03-19T12:52:45.495Z,100696.84
2023-03-19T12:55:15.016Z,100692.34
2023-03-19T12:57:58.046Z,100694.19
2023-03-19T13:00:33.609Z,100691.50
2023-03-19T13:03:22.340Z,100690.78
2023-03-19T13:06:02.092Z,100689.84
2023-03-19T13:08:53.983Z,100690.69
2023-03-19T13:12:05.710Z,100687.28
2023-03-19T13:14:49.502Z,100685.63
2023-03-19T13:17:39.984Z,100681.13
2023-03-19T13:20:27.678Z,100683.78
2023-03-19T13:23:01.371Z,100677.63
2023-03-19T13:25:35.837Z,100673.25
2023-03-19T13:28:05.563Z,100670.28
2023-03-19T13:30:35.410Z,100682.78
2023-03-19T13:33:06.467Z,100683.78
2023-03-19T13:35:38.623Z,100680.28
2023-03-19T13:38:20.102Z,100684.63
2023-03-19T13:40:56.131Z,100686.59
2023-03-19T13:43:31.857Z,100697.13
2023-03-19T13:46:19.351Z,100703.56
2023-03-19T13:48:49.248Z,100709.06
2023-03-19T13:51:21.990Z,100704.56
2023-03-19T13:54:08.754Z,100696.56
2023-03-19T13:57:09.374Z,100694.88
2023-03-19T13:59:40.295Z,100692.06
2023-03-19T14:02:28.037Z,100692.06
2023-03-19T14:05:04.319Z,100694.03
2023-03-19T14:07:43.904Z,100700.22
2023-03-19T14:10:26.908Z,100701.22
2023-03-19T14:13:10.607Z,100694.03
2023-03-19T14:15:42.350Z,100682.81
2023-03-19T14:18:15.138Z,100690.53
2023-03-19T14:21:00.969Z,100692.34
2023-03-19T14:23:40.765Z,100687.88
2023-03-19T14:26:30.388Z,100692.34
2023-03-19T14:29:54.705Z,100700.50
2023-03-19T14:32:26.729Z,100696.16
2023-03-19T14:34:56.356Z,100689.09
2023-03-19T14:37:31.475Z,100693.59
2023-03-19T14:40:45.169Z,100688.97
2023-03-19T14:43:17.749Z,100688.16
2023-03-19T14:46:06.847Z,100686.31
2023-03-19T14:49:00.904Z,100688.28
2023-03-19T14:51:51.783Z,100695.59
2023-03-19T14:54:36.784Z,100688.41
2023-03-19T14:57:46.305Z,100692.75
2023-03-19T15:00:37.773Z,100696.44
2023-03-19T15:03:32.041Z,100700.09
2023-03-19T15:06:06.177Z,100695.59
2023-03-19T15:09:30.475Z,100696.53
2023-03-19T15:12:35.076Z,100692.19
2023-03-19T15:15:41.157Z,100690.53
2023-03-19T15:18:28.661Z,100695.84
2023-03-19T15:21:16.126Z,100697.53
2023-03-19T15:24:06.098Z,100691.50
2023-03-19T15:26:37.523Z,100693.47
2023-03-19T15:29:12.027Z,100690.78
2023-03-19T15:32:16.078Z,100694.88
2023-03-19T15:34:47.768Z,100693.34
2023-03-19T15:37:17.647Z,100687.13
2023-03-19T15:39:50.776Z,100674.38
2023-03-19T15:42:20.391Z,100678.19
2023-03-19T15:45:03.940Z,100677.19
2023-03-19T15:47:34.364Z,100678.88
2023-03-19T15:50:04.823Z,100671.13
2023-03-19T15:52:35.693Z,100679.00
2023-03-19T15:55:05.558Z,100681.69
2023-03-19T15:57:36.182Z,100680.13
2023-03-19T16:00:06.776Z,100688.97
2023-03-19T16:02:36.525Z,100696.00
2023-03-19T16:05:21.504Z,100682.94
2023-03-19T16:07:59.082Z,100688.97
2023-03-19T16:10:33.147Z,100682.94
2023-03-19T16:13:05.694Z,100673.25
2023-03-19T16:15:48.161Z,100679.28
2023-03-19T16:18:20.740Z,100678.72
2023-03-19T16:21:07.671Z,100677.72
2023-03-19T16:23:44.688Z,100679.56
2023-03-19T16:26:27.784Z,100678.72
2023-03-19T16:29:05.288Z,100666.22
2023-03-19T16:31:42.628Z,100659.22
2023-03-19T16:34:26.267Z,100649.38
2023-03-19T16:36:55.839Z,100656.41
2023-03-19T16:39:38.623Z,100660.06
2023-03-19T16:42:18.133Z,100645.88
2023-03-19T16:44:48.805Z,100644.34
2023-03-19T16:47:18.547Z,100647.72
2023-03-19T16:49:51.224Z,100653.06
2023-03-19T16:52:24.360Z,100644.22
2023-03-19T16:54:53.916Z,100643.50
2023-03-19T16:57:23.606Z,100646.16
2023-03-19T16:59:53.183Z,100648.00
2023-03-19T17:02:22.857Z,100646.16
2023-03-19T17:04:53.692Z,100637.16
2023-03-19T17:07:23.313Z,100642.66
2023-03-19T17:09:52.922Z,100643.50
2023-03-19T17:12:22.526Z,100639.84
2023-03-19T17:14:54.672Z,100631.00
2023-03-19T17:17:24.243Z,100631.00
2023-03-19T17:19:53.915Z,100626.66
2023-03-19T17:22:24.826Z,100623.16
2023-03-19T17:24:54.544Z,100621.47
2023-03-19T17:27:24.095Z,100620.59
2023-03-19T17:29:53.716Z,100615.16
2023-03-19T17:32:23.359Z,100613.59
2023-03-19T17:34:52.990Z,100616.41
2023-03-19T17:37:22.584Z,100614.44
2023-03-19T17:39:52.314Z,100610.94
2023-03-19T17:42:23.964Z,100604.75
2023-03-19T17:44:53.758Z,100595.09
2023-03-19T17:47:23.423Z,100596.75
2023-03-19T17:49:52.977Z,100601.25
2023-03-19T17:52:24.883Z,100590.72
2023-03-19T17:54:54.558Z,100596.03
2023-03-19T17:57:24.188Z,100601.38
2023-03-19T17:59:53.765Z,100598.72
2023-03-19T18:02:27.399Z,100600.53
2023-03-19T18:04:57.725Z,100597.75
2023-03-19T18:07:27.392Z,100578.38
2023-03-19T18:09:57.219Z,100585.81
2023-03-19T18:12:26.792Z,100590.03
2023-03-19T18:14:56.447Z,100581.19
2023-03-19T18:17:26.070Z,100575.97
2023-03-19T18:19:55.997Z,100578.66
2023-03-19T18:22:27.047Z,100590.03
2023-03-19T18:24:56.878Z,100584.81
2023-03-19T18:27:26.499Z,100583.97
2023-03-19T18:29:56.118Z,100583.97
2023-03-19T18:32:28.595Z,100587.50
2023-03-19T18:34:58.244Z,100591.28
2023-03-19T18:37:27.905Z,100582.16
2023-03-19T18:39:57.573Z,100584.97
2023-03-19T18:42:27.408Z,100587.78
2023-03-19T18:44:57.046Z,100584.25
2023-03-19T18:47:26.771Z,100593.13
2023-03-19T18:49:59.173Z,100591.41
2023-03-19T18:52:28.855Z,100588.91
2023-03-19T18:54:58.472Z,100594.81
2023-03-19T18:57:28.027Z,100594.91
2023-03-19T18:59:57.840Z,100596.75
2023-03-19T19:02:35.382Z,100585.25
2023-03-19T19:05:05.687Z,100585.25
2023-03-19T19:07:35.330Z,100586.91
2023-03-19T19:10:06.772Z,100588.75
2023-03-19T19:12:36.887Z,100584.56
2023-03-19T19:15:07.054Z,100577.53
2023-03-19T19:17:36.792Z,100586.09
2023-03-19T19:20:06.702Z,100584.56
2023-03-19T19:22:36.328Z,100584.41
2023-03-19T19:25:06.088Z,100586.41
2023-03-19T19:27:35.751Z,100577.69
2023-03-19T19:30:05.529Z,100574.75
2023-03-19T19:32:36.862Z,100575.84
2023-03-19T19:35:08.972Z,100574.88
2023-03-19T19:37:38.569Z,100567.00
2023-03-19T19:40:08.774Z,100564.50
2023-03-19T19:42:38.438Z,100562.81
2023-03-19T19:45:08.683Z,100568.84
2023-03-19T19:47:38.270Z,100570.53
2023-03-19T19:50:08.454Z,100575.84
2023-03-19T19:52:38.167Z,100576.97
2023-03-19T19:55:08.538Z,100571.63
2023-03-19T19:57:38.135Z,100566.31
2023-03-19T20:00:17.881Z,100568.13
2023-03-19T20:02:47.543Z,100563.50
2023-03-19T20:05:25.964Z,100566.31
2023-03-19T20:07:57.432Z,100561.28
2023-03-19T20:10:27.872Z,100561.97
2023-03-19T20:12:59.157Z,100560.28
2023-03-19T20:15:31.173Z,100571.06
2023-03-19T20:18:01.310Z,100566.59
2023-03-19T20:20:34.015Z,100573.06
2023-03-19T20:23:03.752Z,100565.88
2023-03-19T20:25:36.584Z,100565.88
2023-03-19T20:28:06.875Z,100557.91
2023-03-19T20:30:42.125Z,100560.72
2023-03-19T20:33:12.707Z,100564.22
2023-03-19T20:35:42.688Z,100559.72
2023-03-19T20:38:13.090Z,100560.16
2023-03-19T20:40:48.651Z,100554.53
2023-03-19T20:43:31.258Z,100559.16
2023-03-19T20:46:05.851Z,100564.50
2023-03-19T20:48:35.631Z,100569.81
2023-03-19T20:51:05.636Z,100562.81
2023-03-19T20:53:35.195Z,100570.09
2023-03-19T20:56:06.101Z,100573.47
2023-03-19T20:58:38.766Z,100578.09
2023-03-19T21:01:08.392Z,100572.63
2023-03-19T21:03:38.077Z,100580.75
2023-03-19T21:06:12.893Z,100578.34
2023-03-19T21:08:46.206Z,100578.41
2023-03-19T21:11:19.312Z,100584.38
2023-03-19T21:13:49.699Z,100584.28
2023-03-19T21:16:27.185Z,100582.19
2023-03-19T21:18:57.202Z,100574.66
2023-03-19T21:21:34.807Z,100571.13
2023-03-19T21:24:15.444Z,100570.41
2023-03-19T21:26:45.058Z,100574.50
2023-03-19T21:29:28.758Z,100572.16
2023-03-19T21:31:59.371Z,100568.31
2023-03-19T21:34:29.856Z,100566.56
2023-03-19T21:36:59.808Z,100562.53
2023-03-19T21:39:29.994Z,100563.38
2023-03-19T21:41:59.639Z,100565.13
2023-03-19T21:44:31.186Z,100566.34
2023-03-19T21:47:00.822Z,100563.44
2023-03-19T21:49:31.831Z,100563.50
2023-03-19T21:52:01.523Z,100561.06
2023-03-19T21:54:31.130Z,100556.56
2023-03-19T21:57:00.779Z,100568.22
2023-03-19T21:59:33.327Z,100567.97
2023-03-19T22:02:02.947Z,100569.53
2023-03-19T22:04:32.666Z,100567.44
2023-03-19T22:07:02.267Z,100563.56
2023-03-19T22:09:32.273Z,100561.50
2023-03-19T22:12:02.265Z,100572.56
2023-03-19T22:14:31.844Z,100572.22
2023-03-19T22:17:02.586Z,100581.31
2023-03-19T22:19:32.245Z,100594.53
2023-03-19T22:22:01.906Z,100592.00
2023-03-19T22:24:31.570Z,100589.44
2023-03-19T22:27:01.232Z,100599.84
2023-03-19T22:29:30.840Z,100592.84
2023-03-19T22:32:00.535Z,100588.50
2023-03-19T22:34:30.377Z,100594.28
2023-03-19T22:36:59.951Z,100601.22
2023-03-19T22:39:29.607Z,100596.59
2023-03-19T22:41:59.194Z,100610.66
2023-03-19T22:44:30.274Z,100613.84
2023-03-19T22:47:00.699Z,100610.63
2023-03-19T22:49:31.224Z,100620.31
2023-03-19T22:52:01.039Z,100618.78
2023-03-19T22:54:31.013Z,100616.13
2023-03-19T22:57:00.627Z,100616.59
2023-03-19T22:59:30.961Z,100612.66
2023-03-19T23:02:00.929Z,100616.47
2023-03-19T23:04:33.978Z,100616.53
2023-03-19T23:07:03.610Z,100618.69
2023-03-19T23:09:34.739Z,100617.56
2023-03-19T23:12:04.764Z,100619.72
2023-03-19T23:14:34.459Z,100622.72
2023-03-19T23:17:08.081Z,100618.72
2023-03-19T23:19:38.621Z,100626.31
2023-03-19T23:22:09.069Z,100627.91
2023-03-19T23:24:39.244Z,100629.00
2023-03-19T23:27:09.388Z,100635.47
2023-03-19T23:29:41.293Z,100635.78
2023-03-19T23:32:13.004Z,100630.84
2023-03-19T23:34:56.276Z,100631.91
2023-03-19T23:37:27.615Z,100629.59
2023-03-19T23:39:58.134Z,100630.28
2023-03-19T23:42:31.958Z,100633.00
2023-03-19T23:45:03.616Z,100643.56
2023-03-19T23:47:33.348Z,100638.78
2023-03-19T23:50:02.911Z,100632.84
2023-03-19T23:52:32.503Z,100628.41
2023-03-19T23:55:02.105Z,100623.09
2023-03-19T23:57:32.164Z,100626.72
